Time;durP1;ratioP1;P1;durP2;ratioP2;P2;SDS_P1;SDS_P2;PMS_P1;PMS_P2;Temp;Humidity;BMP_temperature;BMP_pressure;BME280_temperature;BME280_humidity;BME280_pressure;Samples;Min_cycle;Max_cycle;Signal;HPM_P1;HPM_P2
2023/02/05 00:01:13;;;;;;;;;3.50;1.50;;;;;18.54;42.13;103352.50;5080099;27;45338;-79
2023/02/05 00:03:39;;;;;;;;;3.75;2.00;;;;;18.57;42.37;103365.72;5080366;27;63007;-79
2023/02/05 00:06:05;;;;;;;;;2.50;1.00;;;;;18.57;42.05;103354.22;5076311;27;47179;-80
2023/02/05 00:08:32;;;;;;;;;2.00;2.00;;;;;18.52;42.14;103338.41;5094535;27;45393;-79
2023/02/05 00:10:58;;;;;;;;;0.75;0.75;;;;;18.60;42.04;103348.88;5093736;27;45361;-79
2023/02/05 00:13:23;;;;;;;;;5.25;3.75;;;;;18.64;42.26;103353.19;5094459;27;61594;-79
2023/02/05 00:15:48;;;;;;;;;1.75;1.75;;;;;18.62;42.03;103347.06;5091757;27;46011;-79
2023/02/05 00:18:14;;;;;;;;;2.50;2.50;;;;;18.56;42.19;103339.22;5089218;27;45278;-80
2023/02/05 00:20:39;;;;;;;;;2.00;2.00;;;;;18.69;42.02;103350.47;5090250;27;45268;-80
2023/02/05 00:23:04;;;;;;;;;2.50;2.25;;;;;18.69;41.94;103347.81;5091010;27;45202;-79
2023/02/05 00:25:30;;;;;;;;;2.50;1.75;;;;;18.67;42.12;103344.31;5090372;27;46143;-79
2023/02/05 00:27:55;;;;;;;;;2.50;1.25;;;;;18.71;42.01;103352.19;5089857;27;45288;-79
2023/02/05 00:30:21;;;;;;;;;5.50;2.75;;;;;18.67;42.06;103337.22;5091582;27;65715;-79
2023/02/05 00:32:46;;;;;;;;;0.75;0.75;;;;;18.73;41.53;103346.84;5086326;27;45441;-79
2023/02/05 00:35:14;;;;;;;;;1.50;1.50;;;;;18.70;41.86;103336.31;5077079;27;69336;-79
2023/02/05 00:37:40;;;;;;;;;1.75;1.75;;;;;18.70;41.53;103338.97;5093040;27;45427;-79
2023/02/05 00:40:05;;;;;;;;;1.75;1.75;;;;;18.71;41.89;103335.41;5095308;27;45779;-79
2023/02/05 00:42:31;;;;;;;;;3.50;2.50;;;;;18.72;42.00;103340.66;5081236;27;45485;-79
2023/02/05 00:44:56;;;;;;;;;2.00;2.00;;;;;18.76;41.99;103344.13;5090816;27;57262;-79
2023/02/05 00:47:21;;;;;;;;;2.00;1.00;;;;;18.72;41.69;103335.38;5095781;27;45338;-79
2023/02/05 00:49:49;;;;;;;;;2.50;1.50;;;;;18.71;41.73;103344.22;5094793;27;45605;-79
2023/02/05 00:52:14;;;;;;;;;2.75;1.75;;;;;18.75;41.50;103345.03;5077273;28;45469;-79
2023/02/05 00:54:40;;;;;;;;;2.00;1.75;;;;;18.75;41.53;103339.72;5089791;27;74257;-79
2023/02/05 00:57:05;;;;;;;;;3.75;2.25;;;;;18.76;41.72;103341.50;5076011;27;45311;-79
2023/02/05 00:59:30;;;;;;;;;1.50;1.50;;;;;18.75;41.51;103335.31;5094736;27;61713;-79
2023/02/05 01:01:56;;;;;;;;;3.75;2.00;;;;;18.74;41.52;103336.22;5086607;27;62474;-79
2023/02/05 01:04:21;;;;;;;;;2.00;1.00;;;;;18.72;41.44;103321.25;5087726;27;67766;-80
2023/02/05 01:06:46;;;;;;;;;1.50;1.50;;;;;18.71;41.69;103315.03;5097738;27;58578;-79
2023/02/05 01:09:12;;;;;;;;;1.75;1.50;;;;;18.61;41.67;103292.28;5095077;27;55844;-79
2023/02/05 01:11:37;;;;;;;;;0.50;0.50;;;;;18.74;41.63;103311.47;5089877;27;57773;-79
2023/02/05 01:14:02;;;;;;;;;2.75;1.50;;;;;18.69;41.56;103292.13;5095870;27;45475;-79
2023/02/05 01:16:28;;;;;;;;;0.50;0.50;;;;;18.76;41.56;103307.00;5092949;27;58871;-79
2023/02/05 01:18:55;;;;;;;;;3.00;0.50;;;;;18.71;41.52;103303.56;5093504;27;47008;-79
2023/02/05 01:21:23;;;;;;;;;1.50;1.50;;;;;18.78;41.56;103305.19;5080761;27;45623;-79
2023/02/05 01:23:49;;;;;;;;;1.75;1.75;;;;;18.77;41.48;103296.34;5083068;27;47343;-79
2023/02/05 01:26:14;;;;;;;;;1.75;1.25;;;;;18.80;41.81;103303.38;5080404;27;45395;-79
2023/02/05 01:28:39;;;;;;;;;1.50;1.50;;;;;18.82;41.72;103304.25;5097097;27;48355;-79
2023/02/05 01:31:05;;;;;;;;;3.25;1.75;;;;;18.82;41.57;103312.19;5101105;27;52632;-79
2023/02/05 01:33:30;;;;;;;;;1.00;1.00;;;;;18.82;41.58;103311.34;5094446;27;50140;-79
2023/02/05 01:35:55;;;;;;;;;0.50;0.25;;;;;18.83;41.44;103303.34;5101287;27;45412;-79
2023/02/05 01:38:21;;;;;;;;;0.50;0.50;;;;;18.87;41.59;103309.47;5094654;27;61984;-79
2023/02/05 01:40:46;;;;;;;;;2.75;0.75;;;;;18.84;41.50;103302.47;5081552;27;45719;-79
2023/02/05 01:43:13;;;;;;;;;1.75;0.75;;;;;18.84;41.27;103291.84;5088459;27;66681;-80
2023/02/05 01:45:49;;;;;;;;;0.75;0.75;;;;;18.87;41.57;103298.84;5082887;27;45442;-79
2023/02/05 01:48:15;;;;;;;;;1.00;0.00;;;;;18.83;41.31;103287.44;5098963;27;45473;-79
2023/02/05 01:50:53;;;;;;;;;1.75;0.75;;;;;18.87;41.60;103288.25;5077356;27;45449;-79
2023/02/05 01:53:22;;;;;;;;;2.25;1.75;;;;;18.81;41.24;103283.91;5094274;27;48186;-79
2023/02/05 01:55:59;;;;;;;;;2.00;1.75;;;;;18.84;41.04;103286.53;5097366;27;45288;-79
2023/02/05 01:58:27;;;;;;;;;0.75;0.75;;;;;18.86;41.25;103279.41;5088174;27;45564;-79
2023/02/05 02:00:52;;;;;;;;;2.50;1.00;;;;;18.85;41.22;103274.13;5073657;27;45599;-79
2023/02/05 02:03:18;;;;;;;;;0.75;0.75;;;;;18.89;41.42;103275.81;5081508;27;74494;-79
2023/02/05 02:05:43;;;;;;;;;1.75;0.75;;;;;18.88;41.29;103268.78;5094009;27;69298;-79
2023/02/05 02:08:11;;;;;;;;;1.00;1.00;;;;;18.87;40.99;103265.22;5088867;27;55635;-79
2023/02/05 02:10:37;;;;;;;;;0.75;0.75;;;;;18.85;41.23;103259.06;5082247;27;45394;-79
2023/02/05 02:13:03;;;;;;;;;1.50;0.75;;;;;18.82;41.41;103250.31;5081036;27;47230;-79
2023/02/05 02:15:28;;;;;;;;;1.75;1.50;;;;;18.80;40.81;103250.31;5101638;27;45459;-79
2023/02/05 02:18:24;;;;;;;;;0.75;0.75;;;;;18.86;41.12;103268.81;5098632;27;45508;-79
2023/02/05 02:20:43;;;;;;;;;0.75;0.50;;;;;18.84;41.03;103259.09;5099346;27;45461;-79
2023/02/05 02:23:27;;;;;;;;;1.25;0.75;;;;;18.83;41.04;103249.41;5080509;27;71223;-79
2023/02/05 02:26:04;;;;;;;;;0.75;0.75;;;;;18.85;41.20;103252.91;5102479;27;45571;-79
2023/02/05 02:28:34;;;;;;;;;1.75;0.75;;;;;18.83;40.96;103257.38;5105349;27;45304;-79
2023/02/05 02:31:07;;;;;;;;;1.75;1.00;;;;;18.83;40.87;103254.72;5105772;27;45448;-79
2023/02/05 02:33:44;;;;;;;;;1.75;0.75;;;;;18.83;40.89;103257.38;5076782;27;46408;-79
2023/02/05 02:36:42;;;;;;;;;1.50;0.50;;;;;18.82;40.80;103252.97;5102892;27;45322;-79
2023/02/05 02:39:26;;;;;;;;;0.50;0.50;;;;;18.81;41.14;103265.34;5094219;27;45538;-79
2023/02/05 02:41:55;;;;;;;;;0.75;0.75;;;;;18.83;40.89;103286.56;5101609;27;45443;-79
2023/02/05 02:44:33;;;;;;;;;1.00;1.00;;;;;18.77;40.84;103280.44;5101458;27;45243;-79
2023/02/05 02:47:04;;;;;;;;;0.50;0.50;;;;;18.81;41.08;103285.69;5098212;27;45557;-80
2023/02/05 02:49:34;;;;;;;;;2.00;0.50;;;;;18.83;41.14;103294.53;5103369;27;45379;-79
2023/02/05 02:52:01;;;;;;;;;2.00;0.75;;;;;18.84;41.21;103306.88;5095372;27;45424;-79
2023/02/05 02:54:27;;;;;;;;;1.75;0.75;;;;;18.88;41.09;103314.75;5082518;27;47355;-79
2023/02/05 02:56:53;;;;;;;;;1.50;0.50;;;;;18.89;40.83;103312.94;5092861;27;66725;-79
2023/02/05 02:59:22;;;;;;;;;2.00;0.50;;;;;18.83;41.11;103300.69;5093442;27;69255;-79
2023/02/05 03:01:53;;;;;;;;;0.00;0.00;;;;;18.91;41.05;103306.72;5095062;27;45370;-79
2023/02/05 03:04:32;;;;;;;;;0.50;0.50;;;;;18.91;41.06;103304.06;5097181;27;45303;-79
2023/02/05 03:07:05;;;;;;;;;1.75;0.75;;;;;18.90;40.99;103297.00;5102167;27;46105;-80
2023/02/05 03:09:38;;;;;;;;;0.50;0.50;;;;;18.93;41.11;103302.25;5089044;27;45243;-79
2023/02/05 03:12:03;;;;;;;;;0.75;0.75;;;;;18.90;41.06;103302.31;5085930;27;45280;-80
2023/02/05 03:14:29;;;;;;;;;1.00;0.75;;;;;18.89;40.93;103311.19;5078092;28;48312;-80
2023/02/05 03:16:55;;;;;;;;;0.25;0.25;;;;;18.94;40.81;103321.69;5085815;27;45484;-79
2023/02/05 03:19:20;;;;;;;;;0.75;0.75;;;;;18.93;40.79;103318.19;5081655;27;45520;-80
2023/02/05 03:21:53;;;;;;;;;0.75;0.75;;;;;18.94;40.82;103311.94;5069955;28;46951;-79
2023/02/05 03:24:19;;;;;;;;;0.75;0.75;;;;;18.89;40.67;103315.59;5097132;27;46199;-80
2023/02/05 03:26:44;;;;;;;;;1.50;0.50;;;;;18.94;40.87;103319.03;5089667;27;65545;-79
2023/02/05 03:29:12;;;;;;;;;0.75;0.75;;;;;18.92;40.96;103319.06;5085723;27;45404;-79
2023/02/05 03:32:16;;;;;;;;;0.25;0.25;;;;;18.94;40.75;103324.34;5087197;27;45446;-79
2023/02/05 03:35:12;;;;;;;;;3.00;0.75;;;;;18.93;40.63;103326.13;5073518;27;45439;-79
2023/02/05 03:38:04;;;;;;;;;0.00;0.00;;;;;18.92;40.36;103316.41;5091010;27;45792;-80
2023/02/05 03:40:39;;;;;;;;;0.50;0.50;;;;;18.93;40.81;103323.47;5092261;27;45532;-79
2023/02/05 03:43:10;;;;;;;;;0.75;0.00;;;;;18.92;40.42;103307.59;5092230;27;45475;-79
2023/02/05 03:45:42;;;;;;;;;1.25;0.50;;;;;18.91;40.73;103313.78;5089549;27;47409;-79
2023/02/05 03:48:44;;;;;;;;;1.00;1.00;;;;;18.90;40.54;103312.94;5094400;27;45839;-79
2023/02/05 03:51:39;;;;;;;;;1.00;0.25;;;;;18.90;40.46;103315.56;5095628;27;45538;-79
2023/02/05 03:54:11;;;;;;;;;2.75;0.75;;;;;18.89;40.58;103313.84;5089950;27;45335;-79
2023/02/05 03:56:44;;;;;;;;;1.00;0.75;;;;;18.88;40.70;103301.47;5085596;27;48014;-79
2023/02/05 03:59:10;;;;;;;;;1.00;0.75;;;;;18.82;40.62;103296.28;5090216;27;45902;-79
2023/02/05 04:01:36;;;;;;;;;1.25;0.75;;;;;18.88;40.94;103309.44;5082689;27;59649;-79
2023/02/05 04:04:02;;;;;;;;;1.75;1.00;;;;;18.88;40.44;103311.22;5077443;27;50402;-79
2023/02/05 04:06:27;;;;;;;;;2.00;0.00;;;;;18.83;40.63;103303.34;5084207;27;45448;-79
2023/02/05 04:08:52;;;;;;;;;1.75;0.00;;;;;18.81;40.74;103302.47;5094217;27;60125;-79
2023/02/05 04:11:18;;;;;;;;;1.00;0.75;;;;;18.86;40.48;103303.28;5087587;27;59821;-79
2023/02/05 04:13:43;;;;;;;;;0.00;0.00;;;;;18.82;40.50;103295.41;5089769;27;59126;-79
2023/02/05 04:16:08;;;;;;;;;1.75;0.75;;;;;18.86;40.52;103311.25;5088688;27;66548;-79
2023/02/05 04:18:34;;;;;;;;;1.50;0.75;;;;;18.76;40.92;103291.09;5080517;27;69804;-79
2023/02/05 04:21:00;;;;;;;;;0.00;0.00;;;;;18.85;40.55;103303.31;5072279;27;54793;-79
2023/02/05 04:23:25;;;;;;;;;1.50;0.50;;;;;18.88;40.67;103312.09;5082160;27;45464;-79
2023/02/05 04:25:52;;;;;;;;;0.75;0.75;;;;;18.86;40.77;103303.28;5088986;27;68014;-79
2023/02/05 04:28:18;;;;;;;;;0.00;0.00;;;;;18.89;40.58;103312.94;5085510;27;45910;-79
2023/02/05 04:30:43;;;;;;;;;0.75;0.75;;;;;18.93;40.87;103331.44;5094410;27;45342;-79
2023/02/05 04:33:09;;;;;;;;;1.25;0.75;;;;;18.89;40.59;103327.13;5092493;27;67197;-79
2023/02/05 04:35:34;;;;;;;;;0.00;0.00;;;;;18.94;40.87;103333.19;5084291;27;47214;-79
2023/02/05 04:37:59;;;;;;;;;1.50;1.50;;;;;18.97;40.82;103333.13;5095308;27;68594;-80
2023/02/05 04:40:25;;;;;;;;;1.00;1.00;;;;;18.95;40.57;103334.06;5081458;27;64369;-79
2023/02/05 04:42:50;;;;;;;;;0.00;0.00;;;;;18.96;40.30;103331.38;5086893;27;54142;-79
2023/02/05 04:45:15;;;;;;;;;0.75;0.75;;;;;18.99;40.76;103330.44;5091226;27;45426;-80
2023/02/05 04:47:41;;;;;;;;;0.00;0.00;;;;;18.95;40.49;103323.47;5094734;27;69832;-79
2023/02/05 04:50:06;;;;;;;;;2.25;0.50;;;;;18.97;40.72;103329.59;5097658;27;45479;-80
2023/02/05 04:52:31;;;;;;;;;1.00;0.75;;;;;19.00;40.55;103337.50;5091850;27;45489;-80
2023/02/05 04:54:57;;;;;;;;;0.25;0.25;;;;;18.88;40.68;103319.19;5099655;27;47397;-79
2023/02/05 04:57:23;;;;;;;;;1.75;0.50;;;;;19.00;40.56;103333.94;5098173;27;45348;-79
2023/02/05 04:59:48;;;;;;;;;1.00;1.00;;;;;18.97;40.51;103318.97;5075520;27;45364;-79
2023/02/05 05:02:14;;;;;;;;;0.75;0.75;;;;;19.01;40.38;103323.31;5093893;27;45427;-79
2023/02/05 05:04:39;;;;;;;;;2.00;1.25;;;;;19.01;40.84;103338.38;5090974;27;73272;-80
2023/02/05 05:07:04;;;;;;;;;0.75;0.75;;;;;18.96;40.42;103331.38;5102013;27;45255;-80
2023/02/05 05:09:30;;;;;;;;;0.75;0.75;;;;;19.00;40.62;103329.53;5100522;27;62847;-80
2023/02/05 05:11:55;;;;;;;;;1.00;1.00;;;;;18.94;40.60;103327.00;5094923;27;68681;-80
2023/02/05 05:14:21;;;;;;;;;1.00;1.00;;;;;18.99;40.30;103327.78;5093372;27;64455;-79
2023/02/05 05:16:47;;;;;;;;;0.75;0.75;;;;;18.92;40.07;103313.75;5096091;27;45218;-79
2023/02/05 05:19:13;;;;;;;;;1.00;1.00;;;;;18.98;40.18;103331.31;5101146;27;45576;-79
2023/02/05 05:21:38;;;;;;;;;0.25;0.25;;;;;18.95;40.55;103332.28;5089874;27;67338;-79
2023/02/05 05:24:03;;;;;;;;;0.75;0.75;;;;;18.92;40.38;103331.47;5098801;27;68994;-79
2023/02/05 05:26:29;;;;;;;;;0.50;0.50;;;;;18.93;40.33;103335.88;5091741;27;45556;-80
2023/02/05 05:28:55;;;;;;;;;0.75;0.75;;;;;18.96;40.46;103344.66;5110981;27;61199;-79
2023/02/05 05:31:21;;;;;;;;;0.00;0.00;;;;;18.97;40.20;103350.81;5088143;27;45422;-79
2023/02/05 05:33:46;;;;;;;;;2.25;0.75;;;;;18.94;40.27;103338.47;5090376;27;46058;-79
2023/02/05 05:36:12;;;;;;;;;0.00;0.00;;;;;18.95;40.52;103348.19;5094412;27;61443;-79
2023/02/05 05:38:37;;;;;;;;;3.75;2.75;;;;;18.96;40.34;103354.38;5089797;27;45456;-79
2023/02/05 05:43:48;;;;;;;;;0.75;0.75;;;;;18.92;40.69;103350.03;5087087;27;45374;-79
2023/02/05 05:46:21;;;;;;;;;1.25;0.00;;;;;18.93;40.50;103357.97;5075854;27;45256;-79
2023/02/05 05:48:51;;;;;;;;;1.75;0.75;;;;;18.94;40.68;103364.16;5087714;27;45456;-79
2023/02/05 05:51:18;;;;;;;;;3.50;1.75;;;;;18.92;40.43;103368.63;5082559;27;45397;-79
2023/02/05 05:53:44;;;;;;;;;2.25;0.75;;;;;18.93;40.32;103365.06;5097971;27;45480;-79
2023/02/05 05:56:09;;;;;;;;;1.25;0.75;;;;;18.90;40.35;103366.00;5096848;27;45460;-79
2023/02/05 05:58:35;;;;;;;;;2.50;0.75;;;;;18.85;40.32;103353.72;5096111;27;45410;-79
2023/02/05 06:01:00;;;;;;;;;0.75;0.75;;;;;18.89;40.53;103364.25;5096583;27;55742;-79
2023/02/05 06:03:25;;;;;;;;;1.75;0.75;;;;;18.88;40.54;103362.50;5093548;27;45394;-79
2023/02/05 06:05:51;;;;;;;;;1.00;1.00;;;;;18.90;40.54;103365.13;5091648;27;45464;-79
2023/02/05 06:08:16;;;;;;;;;1.75;1.75;;;;;18.88;40.62;103364.28;5098449;27;45332;-79
2023/02/05 06:10:41;;;;;;;;;1.25;1.25;;;;;18.85;40.63;103351.06;5092602;27;45370;-79
2023/02/05 06:13:07;;;;;;;;;1.25;0.50;;;;;18.86;40.48;103351.06;5087061;27;46779;-79
2023/02/05 06:15:32;;;;;;;;;1.00;1.00;;;;;18.89;40.80;103360.72;5091650;27;74727;-79
2023/02/05 06:17:58;;;;;;;;;1.50;1.50;;;;;18.87;40.60;103346.59;5083915;27;45439;-79
2023/02/05 06:20:23;;;;;;;;;1.00;1.00;;;;;18.95;40.75;103364.13;5077774;28;61935;-79
2023/02/05 06:22:49;;;;;;;;;1.75;0.75;;;;;18.92;40.64;103352.69;5080014;27;48253;-79
2023/02/05 06:25:14;;;;;;;;;0.75;0.75;;;;;18.98;40.38;103363.16;5088607;27;45342;-79
2023/02/05 06:27:40;;;;;;;;;2.25;0.75;;;;;19.00;40.53;103357.84;5093119;27;45511;-79
2023/02/05 06:30:06;;;;;;;;;0.75;0.75;;;;;18.97;40.45;103353.47;5089353;27;45585;-79
2023/02/05 06:32:31;;;;;;;;;2.50;1.50;;;;;18.97;40.16;103349.03;5084704;27;46292;-80
2023/02/05 06:34:57;;;;;;;;;2.25;1.75;;;;;19.01;40.85;103351.63;5092903;27;54107;-80
2023/02/05 06:37:24;;;;;;;;;1.75;1.75;;;;;18.97;40.65;103343.72;5090277;27;55561;-79
2023/02/05 06:39:50;;;;;;;;;1.25;0.75;;;;;18.99;40.61;103346.34;5075933;27;46261;-80
2023/02/05 06:42:15;;;;;;;;;1.00;0.75;;;;;19.03;40.30;103345.38;5091587;27;46958;-79
2023/02/05 06:44:40;;;;;;;;;0.75;0.75;;;;;19.03;40.60;103341.88;5089213;27;58684;-79
2023/02/05 06:47:06;;;;;;;;;1.75;1.75;;;;;19.00;40.33;103336.59;5088596;27;58880;-79
2023/02/05 06:49:31;;;;;;;;;3.25;1.75;;;;;19.04;40.44;103339.19;5092069;27;64150;-79
2023/02/05 06:51:56;;;;;;;;;2.00;0.75;;;;;19.05;40.25;103340.03;5092752;27;60436;-79
2023/02/05 06:54:23;;;;;;;;;0.75;0.75;;;;;19.01;40.36;103333.06;5090927;27;49984;-79
2023/02/05 06:56:48;;;;;;;;;1.75;1.75;;;;;19.05;40.51;103345.34;5094955;27;45579;-79
2023/02/05 06:59:13;;;;;;;;;1.75;1.75;;;;;19.03;40.22;103345.38;5095955;27;57193;-79
2023/02/05 07:01:38;;;;;;;;;0.75;0.75;;;;;18.99;40.42;103348.16;5092890;27;73067;-79
2023/02/05 07:04:04;;;;;;;;;0.50;0.50;;;;;19.04;40.18;103364.84;5074095;27;71719;-79
2023/02/05 07:06:30;;;;;;;;;1.75;1.75;;;;;19.01;40.29;103362.25;5094069;27;45251;-79
2023/02/05 07:08:55;;;;;;;;;1.50;1.50;;;;;18.99;40.39;103356.09;5091568;27;45413;-79
2023/02/05 07:11:21;;;;;;;;;2.25;1.75;;;;;18.96;40.25;103349.97;5092867;27;45537;-79
2023/02/05 07:13:47;;;;;;;;;2.75;1.75;;;;;18.99;40.35;103351.66;5092837;27;45685;-79
2023/02/05 07:16:12;;;;;;;;;1.00;1.00;;;;;19.00;40.24;103358.75;5071694;27;63015;-79
2023/02/05 07:18:37;;;;;;;;;1.00;1.00;;;;;18.96;40.38;103351.72;5093146;27;53568;-79
2023/02/05 07:21:08;;;;;;;;;1.75;1.25;;;;;19.01;40.21;103363.13;5093153;27;47224;-80
2023/02/05 07:23:34;;;;;;;;;1.75;1.75;;;;;19.01;40.45;103368.44;5083032;27;45433;-79
2023/02/05 07:26:25;;;;;;;;;2.00;1.75;;;;;19.01;40.32;103362.25;5098160;27;45504;-79
2023/02/05 07:28:51;;;;;;;;;4.50;1.50;;;;;19.00;40.46;103371.09;5088049;27;45505;-79
2023/02/05 07:31:17;;;;;;;;;2.00;2.00;;;;;18.99;40.36;103369.38;5090583;27;45468;-79
2023/02/05 07:33:46;;;;;;;;;0.50;0.50;;;;;19.00;40.12;103368.44;5098773;27;45289;-79
2023/02/05 07:36:17;;;;;;;;;2.50;2.00;;;;;18.96;40.48;103368.53;5085761;27;45423;-79
2023/02/05 07:38:44;;;;;;;;;1.25;0.75;;;;;18.99;40.39;103364.06;5094475;27;45282;-79
2023/02/05 07:41:12;;;;;;;;;2.75;1.25;;;;;18.94;40.18;103374.75;5092066;27;45654;-79
2023/02/05 07:43:38;;;;;;;;;1.75;1.00;;;;;18.94;40.47;103361.50;5085528;27;45411;-79
2023/02/05 07:46:06;;;;;;;;;1.75;1.75;;;;;18.95;40.33;103369.44;5083500;27;45499;-79
2023/02/05 07:48:33;;;;;;;;;2.50;2.50;;;;;18.93;40.29;103365.94;5094422;27;45470;-79
2023/02/05 07:50:58;;;;;;;;;1.00;0.75;;;;;18.93;40.19;103378.34;5079644;27;48468;-79
2023/02/05 07:53:24;;;;;;;;;3.25;1.75;;;;;18.92;40.25;103381.88;5096976;27;57966;-79
2023/02/05 07:55:49;;;;;;;;;2.50;1.75;;;;;18.95;40.45;103387.16;5085347;27;45432;-79
2023/02/05 07:58:15;;;;;;;;;2.50;2.00;;;;;18.94;40.38;103394.22;5089634;27;72251;-79
2023/02/05 08:00:40;;;;;;;;;2.00;0.75;;;;;18.93;40.57;103400.44;5081779;27;47199;-79
2023/02/05 08:03:06;;;;;;;;;3.75;1.75;;;;;18.89;40.42;103392.56;5093920;27;45278;-79
2023/02/05 08:05:32;;;;;;;;;2.00;2.00;;;;;18.89;40.45;103404.06;5093011;27;45464;-79
2023/02/05 08:07:57;;;;;;;;;2.50;2.00;;;;;18.94;40.59;103420.75;5097288;27;45410;-79
2023/02/05 08:10:22;;;;;;;;;0.50;0.50;;;;;18.89;40.83;103405.81;5078498;27;47453;-79
2023/02/05 08:12:48;;;;;;;;;4.50;0.75;;;;;18.91;40.73;103410.22;5088335;27;45452;-79
2023/02/05 08:15:13;;;;;;;;;2.00;1.50;;;;;18.98;40.38;103418.91;5078883;27;45438;-79
2023/02/05 08:17:39;;;;;;;;;4.25;1.75;;;;;19.00;40.76;103414.47;5096958;27;53385;-79
2023/02/05 08:20:06;;;;;;;;;1.75;1.75;;;;;18.96;40.84;103400.38;5078935;27;47485;-79
2023/02/05 08:22:37;;;;;;;;;2.00;1.75;;;;;18.96;40.56;103407.44;5099920;27;45409;-79
2023/02/05 08:25:08;;;;;;;;;2.00;2.00;;;;;19.01;40.83;103408.25;5092087;27;45392;-79
2023/02/05 08:27:35;;;;;;;;;2.25;2.00;;;;;19.03;40.55;103414.38;5072942;27;45373;-79
2023/02/05 08:30:01;;;;;;;;;3.50;2.25;;;;;19.02;40.61;103415.31;5091744;27;46041;-79
2023/02/05 08:32:27;;;;;;;;;3.00;1.50;;;;;19.08;40.68;103422.28;5089687;27;45839;-79
2023/02/05 08:34:52;;;;;;;;;2.50;1.75;;;;;19.10;40.67;103429.28;5074603;28;45547;-79
2023/02/05 08:37:18;;;;;;;;;4.00;2.75;;;;;19.12;40.57;103423.94;5070439;27;58582;-79
2023/02/05 08:39:43;;;;;;;;;3.75;1.75;;;;;19.09;40.78;103419.59;5089604;27;45957;-79
2023/02/05 08:42:09;;;;;;;;;2.25;2.00;;;;;19.08;40.57;103419.63;5081026;27;45711;-79
2023/02/05 08:44:34;;;;;;;;;2.00;2.00;;;;;19.15;40.74;103421.25;5086798;27;45419;-79
2023/02/05 08:47:00;;;;;;;;;4.50;2.50;;;;;19.17;40.97;103430.03;5105405;27;60378;-79
2023/02/05 08:49:25;;;;;;;;;4.50;0.75;;;;;19.15;40.50;103431.84;5096235;27;46316;-79
2023/02/05 08:51:50;;;;;;;;;2.25;1.50;;;;;19.17;40.56;103438.00;5096327;27;45508;-79
2023/02/05 08:54:16;;;;;;;;;3.00;1.75;;;;;19.20;40.71;103443.25;5082556;27;45381;-79
2023/02/05 08:56:43;;;;;;;;;1.75;1.75;;;;;19.17;40.81;103432.69;5095764;27;45313;-79
2023/02/05 08:59:09;;;;;;;;;1.00;1.00;;;;;19.19;40.83;103436.19;5079661;27;46891;-79
2023/02/05 09:01:36;;;;;;;;;2.50;2.00;;;;;19.25;40.56;103435.22;5069430;28;45430;-79
2023/02/05 09:04:03;;;;;;;;;2.00;2.00;;;;;19.25;40.85;103445.84;5104589;27;45496;-79
2023/02/05 09:06:29;;;;;;;;;1.50;0.75;;;;;19.27;40.58;103447.53;5093578;27;45291;-79
2023/02/05 09:08:55;;;;;;;;;1.75;1.75;;;;;19.28;40.76;103441.34;5078079;27;47291;-80
2023/02/05 09:11:21;;;;;;;;;2.50;2.50;;;;;19.29;40.73;103439.53;5094394;27;45335;-80
2023/02/05 09:13:47;;;;;;;;;1.25;1.25;;;;;19.31;40.87;103448.34;5085894;27;45382;-80
2023/02/05 09:16:12;;;;;;;;;0.75;0.75;;;;;19.28;40.78;103438.69;5089513;27;65268;-80
2023/02/05 09:18:37;;;;;;;;;4.50;2.25;;;;;19.32;40.82;103440.34;5083711;27;72378;-80
2023/02/05 09:21:06;;;;;;;;;1.75;1.75;;;;;19.25;40.78;103436.09;5079881;27;75400;-80
2023/02/05 09:23:32;;;;;;;;;3.00;1.50;;;;;19.34;40.86;103443.00;5095199;27;45403;-80
2023/02/05 09:25:58;;;;;;;;;2.25;1.75;;;;;19.37;40.55;103442.94;5097245;27;45316;-80
2023/02/05 09:28:23;;;;;;;;;3.50;2.25;;;;;19.35;40.76;103434.09;5100193;27;46639;-80
2023/02/05 09:30:49;;;;;;;;;2.50;1.75;;;;;19.33;41.04;103426.16;5096386;27;67954;-80
2023/02/05 09:33:14;;;;;;;;;2.00;1.75;;;;;19.39;40.78;103441.13;5095062;27;60920;-80
2023/02/05 09:35:40;;;;;;;;;0.00;0.00;;;;;19.32;41.09;103434.19;5097161;27;45448;-80
2023/02/05 09:38:05;;;;;;;;;3.00;1.50;;;;;19.41;40.92;103454.38;5091009;27;45818;-80
2023/02/05 09:40:55;;;;;;;;;0.00;0.00;;;;;19.43;40.96;103464.03;5095653;27;45518;-80
2023/02/05 09:43:39;;;;;;;;;3.50;2.00;;;;;19.44;40.83;103462.25;5104647;27;45309;-80
2023/02/05 09:46:13;;;;;;;;;1.75;1.75;;;;;19.40;41.06;103457.91;5102109;27;45455;-80
2023/02/05 09:48:48;;;;;;;;;1.00;0.75;;;;;19.44;41.23;103467.56;5094648;27;45289;-80
2023/02/05 09:51:21;;;;;;;;;0.75;0.75;;;;;19.47;40.90;103473.69;5082275;27;45582;-78
2023/02/05 09:53:51;;;;;;;;;3.75;1.75;;;;;19.45;41.26;103464.88;5098169;27;45444;-78
2023/02/05 09:56:17;;;;;;;;;1.00;0.75;;;;;19.44;40.95;103467.56;5096525;27;45450;-78
2023/02/05 09:58:46;;;;;;;;;1.75;1.50;;;;;19.47;41.16;103459.53;5100203;27;46087;-78
2023/02/05 10:01:18;;;;;;;;;1.75;1.75;;;;;19.47;41.16;103456.88;5098371;27;46118;-78
2023/02/05 10:03:46;;;;;;;;;0.75;0.75;;;;;19.52;41.11;103457.66;5089460;27;45395;-78
2023/02/05 10:06:18;;;;;;;;;3.00;1.75;;;;;19.52;41.06;103460.31;5094551;27;45765;-78
2023/02/05 10:09:23;;;;;;;;;1.75;1.50;;;;;19.55;41.24;103470.88;5111291;27;47135;-81
2023/02/05 10:12:04;;;;;;;;;3.00;1.00;;;;;19.57;40.92;103468.19;5071460;27;45431;-78
2023/02/05 10:14:35;;;;;;;;;0.00;0.00;;;;;19.58;40.94;103467.28;5094009;27;45307;-80
2023/02/05 10:17:28;;;;;;;;;1.75;0.75;;;;;19.55;41.24;103457.59;5092109;27;45398;-80
2023/02/05 10:20:12;;;;;;;;;0.75;0.75;;;;;19.59;41.06;103477.00;5097427;27;48239;-78
2023/02/05 10:23:00;;;;;;;;;1.00;1.00;;;;;19.59;40.90;103484.97;5098225;27;45173;-78
2023/02/05 10:25:34;;;;;;;;;0.75;0.75;;;;;19.60;40.92;103481.38;5104634;27;45364;-78
2023/02/05 10:28:24;;;;;;;;;2.25;2.25;;;;;19.62;41.01;103492.84;5088538;27;45395;-79
2023/02/05 10:31:08;;;;;;;;;1.00;1.00;;;;;19.62;40.94;103485.78;5096532;27;45996;-78
2023/02/05 10:33:40;;;;;;;;;2.50;1.75;;;;;19.63;41.21;103494.63;5096469;27;45714;-78
2023/02/05 10:36:08;;;;;;;;;2.25;2.00;;;;;19.62;40.60;103496.41;5099041;27;45392;-78
2023/02/05 10:38:42;;;;;;;;;3.25;1.00;;;;;19.65;40.96;103512.25;5096875;27;45342;-78
2023/02/05 10:41:23;;;;;;;;;3.00;3.00;;;;;19.60;41.37;103526.56;5094734;27;45522;-79
2023/02/05 10:43:53;;;;;;;;;4.00;3.50;;;;;19.67;40.84;103545.00;5070129;27;46636;-79
2023/02/05 10:46:18;;;;;;;;;2.25;1.75;;;;;19.67;41.21;103538.81;5077989;27;45555;-79
2023/02/05 10:48:46;;;;;;;;;2.50;1.50;;;;;19.67;41.14;103541.47;5088366;27;45441;-79
2023/02/05 10:51:38;;;;;;;;;1.75;1.75;;;;;19.68;41.16;103540.56;5075771;27;47143;-79
2023/02/05 10:54:05;;;;;;;;;0.75;0.50;;;;;19.68;41.38;103530.81;5077168;27;45771;-79
2023/02/05 10:56:31;;;;;;;;;0.50;0.50;;;;;19.67;41.06;103509.56;5088347;27;45385;-79
2023/02/05 10:59:03;;;;;;;;;2.75;2.00;;;;;19.70;41.00;103493.56;5082406;27;45532;-79
2023/02/05 11:01:35;;;;;;;;;0.75;0.75;;;;;19.72;41.05;103497.06;5076518;27;47262;-79
2023/02/05 11:04:07;;;;;;;;;0.75;0.75;;;;;19.72;41.00;103503.28;5088166;27;45755;-79
2023/02/05 11:06:39;;;;;;;;;2.25;0.75;;;;;19.72;41.03;103486.44;5091935;27;45568;-78
2023/02/05 11:09:23;;;;;;;;;1.75;0.75;;;;;19.75;40.87;103489.06;5095794;27;45565;-79
2023/02/05 11:11:53;;;;;;;;;1.25;0.75;;;;;19.76;41.11;103474.00;5095156;27;47107;-79
2023/02/05 11:14:45;;;;;;;;;1.00;0.75;;;;;19.77;40.90;103487.25;5093536;27;45860;-79
2023/02/05 11:17:19;;;;;;;;;0.75;0.75;;;;;19.77;40.93;103484.59;5088391;27;45386;-79
2023/02/05 11:19:52;;;;;;;;;1.75;0.75;;;;;19.78;41.22;103480.16;5100021;27;45305;-79
2023/02/05 11:22:26;;;;;;;;;0.25;0.25;;;;;19.78;40.73;103491.66;5071400;27;47389;-79
2023/02/05 11:25:04;;;;;;;;;1.50;0.75;;;;;19.76;40.80;103506.78;5094013;27;45418;-79
2023/02/05 11:27:31;;;;;;;;;1.00;1.00;;;;;19.77;40.67;103492.56;5073548;27;45177;-79
2023/02/05 11:30:14;;;;;;;;;1.75;0.00;;;;;19.82;40.66;103484.50;5090852;27;45381;-79
2023/02/05 11:32:40;;;;;;;;;1.25;0.00;;;;;19.82;40.80;103487.16;5088116;27;45358;-78
2023/02/05 11:35:25;;;;;;;;;0.75;0.75;;;;;19.84;40.73;103480.03;5095816;27;45325;-79